Brighton, South Carolina
Current Conditions -  °F | °C
As of 10:55 PM on Sunday 23 Nov 2014 (Local Time) from KJYL Reporting Station
Heavy Rain Heavy Rain  
Wind Chill: 19°   Ceiling: 2900
Heat Index: 19°   Visibility: 3mi
Dew Point: 19°   Wind: 8mph
Humidity: 96%   Direction: 240°WSW
Pressure: 29.86"   Gusts: NA
Location:  32.6001°N, 81.2393°W
Report Text: KJYL 240355Z AUTO 24007KT 3SM +RA SCT016 BKN029 OVC100 19/19 A2986 RMK AO2 LTG DSNT E T01910185
Loading
Personal Weather Stations






























Interactive Weather Map New forecast layout! Learn more

10-Day Weather Forecast

Advertisements
Track Severe Weather on mobile